sensor_id;sensor_type;location;lat;lon;timestamp;P1;durP1;ratioP1;P2;durP2;ratioP2
46613;SDS011;32338;50.430;6.806;2023-05-10T00:02:08;2.83;;;0.43;;
46613;SDS011;32338;50.430;6.806;2023-05-10T00:04:35;3.22;;;0.80;;
46613;SDS011;32338;50.430;6.806;2023-05-10T00:07:02;0.95;;;0.68;;
46613;SDS011;32338;50.430;6.806;2023-05-10T00:09:28;1.20;;;0.70;;
46613;SDS011;32338;50.430;6.806;2023-05-10T00:11:55;3.25;;;0.80;;
46613;SDS011;32338;50.430;6.806;2023-05-10T00:14:23;5.78;;;0.80;;
46613;SDS011;32338;50.430;6.806;2023-05-10T00:16:51;4.32;;;0.90;;
46613;SDS011;32338;50.430;6.806;2023-05-10T00:19:17;3.67;;;0.90;;
46613;SDS011;32338;50.430;6.806;2023-05-10T00:21:44;1.65;;;1.10;;
46613;SDS011;32338;50.430;6.806;2023-05-10T00:24:11;5.97;;;1.42;;
46613;SDS011;32338;50.430;6.806;2023-05-10T00:26:37;2.03;;;1.83;;
46613;SDS011;32338;50.430;6.806;2023-05-10T00:29:04;1.30;;;1.20;;
46613;SDS011;32338;50.430;6.806;2023-05-10T00:31:30;1.40;;;1.20;;
46613;SDS011;32338;50.430;6.806;2023-05-10T00:33:58;1.40;;;1.25;;
46613;SDS011;32338;50.430;6.806;2023-05-10T00:36:25;1.42;;;1.23;;
46613;SDS011;32338;50.430;6.806;2023-05-10T00:38:52;2.80;;;2.30;;
46613;SDS011;32338;50.430;6.806;2023-05-10T00:41:19;2.10;;;1.50;;
46613;SDS011;32338;50.430;6.806;2023-05-10T00:43:46;1.52;;;1.42;;
46613;SDS011;32338;50.430;6.806;2023-05-10T00:46:13;1.98;;;1.27;;
46613;SDS011;32338;50.430;6.806;2023-05-10T00:48:41;2.00;;;1.90;;
46613;SDS011;32338;50.430;6.806;2023-05-10T00:51:09;2.15;;;1.65;;
46613;SDS011;32338;50.430;6.806;2023-05-10T00:53:36;2.08;;;1.88;;
46613;SDS011;32338;50.430;6.806;2023-05-10T00:56:03;3.40;;;1.50;;
46613;SDS011;32338;50.430;6.806;2023-05-10T00:58:30;1.65;;;1.55;;
46613;SDS011;32338;50.430;6.806;2023-05-10T01:00:57;3.28;;;1.50;;
46613;SDS011;32338;50.430;6.806;2023-05-10T01:03:24;1.50;;;1.40;;
46613;SDS011;32338;50.430;6.806;2023-05-10T01:05:51;3.28;;;1.33;;
46613;SDS011;32338;50.430;6.806;2023-05-10T01:08:19;1.88;;;1.40;;
46613;SDS011;32338;50.430;6.806;2023-05-10T01:10:46;2.97;;;1.40;;
46613;SDS011;32338;50.430;6.806;2023-05-10T01:13:14;1.20;;;1.10;;
46613;SDS011;32338;50.430;6.806;2023-05-10T01:15:49;2.92;;;1.52;;
46613;SDS011;32338;50.430;6.806;2023-05-10T01:18:16;2.63;;;1.27;;
46613;SDS011;32338;50.430;6.806;2023-05-10T01:20:46;4.20;;;1.50;;
46613;SDS011;32338;50.430;6.806;2023-05-10T01:23:39;4.05;;;1.60;;
46613;SDS011;32338;50.430;6.806;2023-05-10T01:29:11;2.45;;;2.25;;
46613;SDS011;32338;50.430;6.806;2023-05-10T01:31:59;2.85;;;2.28;;
46613;SDS011;32338;50.430;6.806;2023-05-10T01:34:34;3.03;;;2.60;;
46613;SDS011;32338;50.430;6.806;2023-05-10T01:37:06;4.25;;;1.90;;
46613;SDS011;32338;50.430;6.806;2023-05-10T01:39:39;1.88;;;1.77;;
46613;SDS011;32338;50.430;6.806;2023-05-10T01:42:14;8.95;;;2.10;;
46613;SDS011;32338;50.430;6.806;2023-05-10T01:44:45;5.95;;;2.00;;
46613;SDS011;32338;50.430;6.806;2023-05-10T01:47:23;4.03;;;2.17;;
46613;SDS011;32338;50.430;6.806;2023-05-10T01:49:57;2.92;;;2.10;;
46613;SDS011;32338;50.430;6.806;2023-05-10T01:52:30;2.28;;;2.03;;
46613;SDS011;32338;50.430;6.806;2023-05-10T01:55:00;2.22;;;2.03;;
46613;SDS011;32338;50.430;6.806;2023-05-10T01:57:32;2.25;;;2.05;;
46613;SDS011;32338;50.430;6.806;2023-05-10T02:00:01;2.28;;;1.92;;
46613;SDS011;32338;50.430;6.806;2023-05-10T02:02:30;2.40;;;2.20;;
46613;SDS011;32338;50.430;6.806;2023-05-10T02:04:59;2.35;;;2.15;;
46613;SDS011;32338;50.430;6.806;2023-05-10T02:07:26;2.05;;;1.88;;
46613;SDS011;32338;50.430;6.806;2023-05-10T02:09:54;2.17;;;1.98;;
46613;SDS011;32338;50.430;6.806;2023-05-10T02:12:21;2.70;;;1.88;;
46613;SDS011;32338;50.430;6.806;2023-05-10T02:14:50;2.40;;;2.20;;
46613;SDS011;32338;50.430;6.806;2023-05-10T02:17:18;3.40;;;1.75;;
46613;SDS011;32338;50.430;6.806;2023-05-10T02:19:47;4.57;;;1.65;;
46613;SDS011;32338;50.430;6.806;2023-05-10T02:22:15;1.52;;;1.42;;
46613;SDS011;32338;50.430;6.806;2023-05-10T02:24:44;2.38;;;2.20;;
46613;SDS011;32338;50.430;6.806;2023-05-10T02:27:13;2.25;;;2.08;;
46613;SDS011;32338;50.430;6.806;2023-05-10T02:29:41;2.08;;;1.88;;
46613;SDS011;32338;50.430;6.806;2023-05-10T02:32:08;2.65;;;2.45;;
46613;SDS011;32338;50.430;6.806;2023-05-10T02:34:37;2.65;;;1.60;;
46613;SDS011;32338;50.430;6.806;2023-05-10T02:37:06;3.78;;;1.88;;
46613;SDS011;32338;50.430;6.806;2023-05-10T02:39:33;3.95;;;1.73;;
46613;SDS011;32338;50.430;6.806;2023-05-10T02:42:00;4.15;;;2.17;;
46613;SDS011;32338;50.430;6.806;2023-05-10T02:44:28;2.67;;;2.10;;
46613;SDS011;32338;50.430;6.806;2023-05-10T02:46:56;2.40;;;2.20;;
46613;SDS011;32338;50.430;6.806;2023-05-10T02:51:56;3.15;;;2.20;;
46613;SDS011;32338;50.430;6.806;2023-05-10T02:54:29;2.50;;;2.30;;
46613;SDS011;32338;50.430;6.806;2023-05-10T02:57:00;4.55;;;2.00;;
46613;SDS011;32338;50.430;6.806;2023-05-10T02:59:30;3.50;;;2.33;;
46613;SDS011;32338;50.430;6.806;2023-05-10T03:01:57;2.80;;;2.15;;
46613;SDS011;32338;50.430;6.806;2023-05-10T03:04:24;1.92;;;1.55;;
46613;SDS011;32338;50.430;6.806;2023-05-10T03:06:51;4.15;;;2.10;;
46613;SDS011;32338;50.430;6.806;2023-05-10T03:09:18;2.67;;;2.45;;
46613;SDS011;32338;50.430;6.806;2023-05-10T03:11:50;13.13;;;2.55;;
46613;SDS011;32338;50.430;6.806;2023-05-10T03:14:31;2.40;;;2.20;;
46613;SDS011;32338;50.430;6.806;2023-05-10T03:17:08;3.85;;;3.00;;
46613;SDS011;32338;50.430;6.806;2023-05-10T03:19:42;7.05;;;2.97;;
46613;SDS011;32338;50.430;6.806;2023-05-10T03:22:12;4.07;;;3.25;;
46613;SDS011;32338;50.430;6.806;2023-05-10T03:24:47;8.65;;;3.42;;
46613;SDS011;32338;50.430;6.806;2023-05-10T03:27:17;3.28;;;2.97;;
46613;SDS011;32338;50.430;6.806;2023-05-10T03:29:44;3.42;;;3.13;;
46613;SDS011;32338;50.430;6.806;2023-05-10T03:32:12;3.72;;;2.97;;
46613;SDS011;32338;50.430;6.806;2023-05-10T03:34:41;4.30;;;2.95;;
46613;SDS011;32338;50.430;6.806;2023-05-10T03:37:07;8.68;;;3.22;;
46613;SDS011;32338;50.430;6.806;2023-05-10T03:39:34;3.63;;;2.80;;
46613;SDS011;32338;50.430;6.806;2023-05-10T03:42:00;4.47;;;4.00;;
46613;SDS011;32338;50.430;6.806;2023-05-10T03:44:28;4.85;;;3.17;;
46613;SDS011;32338;50.430;6.806;2023-05-10T03:46:55;6.15;;;3.42;;
46613;SDS011;32338;50.430;6.806;2023-05-10T03:49:22;4.07;;;2.97;;
46613;SDS011;32338;50.430;6.806;2023-05-10T03:51:49;3.15;;;2.88;;
46613;SDS011;32338;50.430;6.806;2023-05-10T03:54:15;6.63;;;2.80;;
46613;SDS011;32338;50.430;6.806;2023-05-10T03:56:42;3.92;;;3.08;;
46613;SDS011;32338;50.430;6.806;2023-05-10T03:59:08;4.18;;;3.63;;
46613;SDS011;32338;50.430;6.806;2023-05-10T04:01:36;6.07;;;3.53;;
46613;SDS011;32338;50.430;6.806;2023-05-10T04:04:03;6.93;;;3.35;;
46613;SDS011;32338;50.430;6.806;2023-05-10T04:06:30;8.02;;;3.78;;
46613;SDS011;32338;50.430;6.806;2023-05-10T04:08:56;6.22;;;3.60;;
46613;SDS011;32338;50.430;6.806;2023-05-10T04:11:25;6.45;;;4.10;;
46613;SDS011;32338;50.430;6.806;2023-05-10T04:13:51;5.38;;;4.18;;
46613;SDS011;32338;50.430;6.806;2023-05-10T04:16:18;5.35;;;4.00;;
46613;SDS011;32338;50.430;6.806;2023-05-10T04:18:46;8.05;;;4.25;;
46613;SDS011;32338;50.430;6.806;2023-05-10T04:21:13;4.20;;;3.80;;
46613;SDS011;32338;50.430;6.806;2023-05-10T04:23:40;9.60;;;4.70;;
46613;SDS011;32338;50.430;6.806;2023-05-10T04:26:07;7.82;;;3.83;;
46613;SDS011;32338;50.430;6.806;2023-05-10T04:28:33;6.22;;;4.88;;
46613;SDS011;32338;50.430;6.806;2023-05-10T04:31:00;5.07;;;4.68;;
46613;SDS011;32338;50.430;6.806;2023-05-10T04:33:28;6.50;;;4.38;;
46613;SDS011;32338;50.430;6.806;2023-05-10T04:35:56;6.13;;;4.72;;
46613;SDS011;32338;50.430;6.806;2023-05-10T04:38:23;11.02;;;4.68;;
46613;SDS011;32338;50.430;6.806;2023-05-10T04:40:50;11.23;;;4.50;;
46613;SDS011;32338;50.430;6.806;2023-05-10T04:43:16;7.05;;;4.47;;
46613;SDS011;32338;50.430;6.806;2023-05-10T04:45:43;5.22;;;4.72;;
46613;SDS011;32338;50.430;6.806;2023-05-10T04:48:09;7.97;;;4.30;;
46613;SDS011;32338;50.430;6.806;2023-05-10T04:50:36;6.07;;;4.13;;
46613;SDS011;32338;50.430;6.806;2023-05-10T04:53:04;4.65;;;4.25;;
46613;SDS011;32338;50.430;6.806;2023-05-10T04:55:31;8.30;;;4.03;;
46613;SDS011;32338;50.430;6.806;2023-05-10T04:57:57;14.85;;;5.20;;
46613;SDS011;32338;50.430;6.806;2023-05-10T05:00:24;5.70;;;4.35;;
46613;SDS011;32338;50.430;6.806;2023-05-10T05:02:50;5.57;;;4.95;;
46613;SDS011;32338;50.430;6.806;2023-05-10T05:05:17;5.85;;;4.05;;
46613;SDS011;32338;50.430;6.806;2023-05-10T05:07:44;7.18;;;4.45;;
46613;SDS011;32338;50.430;6.806;2023-05-10T05:10:12;7.82;;;4.32;;
46613;SDS011;32338;50.430;6.806;2023-05-10T05:12:38;5.32;;;4.30;;
46613;SDS011;32338;50.430;6.806;2023-05-10T05:15:05;6.28;;;4.00;;
46613;SDS011;32338;50.430;6.806;2023-05-10T05:17:34;7.38;;;4.78;;
46613;SDS011;32338;50.430;6.806;2023-05-10T05:20:00;12.60;;;5.70;;
46613;SDS011;32338;50.430;6.806;2023-05-10T05:22:27;7.38;;;5.18;;
46613;SDS011;32338;50.430;6.806;2023-05-10T05:24:53;6.47;;;5.38;;
46613;SDS011;32338;50.430;6.806;2023-05-10T05:27:21;7.72;;;5.68;;
46613;SDS011;32338;50.430;6.806;2023-05-10T05:29:49;6.82;;;5.25;;
46613;SDS011;32338;50.430;6.806;2023-05-10T05:32:16;12.05;;;5.85;;
46613;SDS011;32338;50.430;6.806;2023-05-10T05:34:43;10.57;;;6.13;;
46613;SDS011;32338;50.430;6.806;2023-05-10T05:37:12;9.40;;;5.60;;
46613;SDS011;32338;50.430;6.806;2023-05-10T05:39:39;6.45;;;5.82;;
46613;SDS011;32338;50.430;6.806;2023-05-10T05:42:06;12.65;;;5.13;;
46613;SDS011;32338;50.430;6.806;2023-05-10T05:44:33;8.88;;;4.90;;
46613;SDS011;32338;50.430;6.806;2023-05-10T05:47:00;7.50;;;5.13;;
46613;SDS011;32338;50.430;6.806;2023-05-10T05:49:27;8.80;;;4.78;;
46613;SDS011;32338;50.430;6.806;2023-05-10T05:51:53;6.75;;;4.40;;
46613;SDS011;32338;50.430;6.806;2023-05-10T05:54:20;8.95;;;5.13;;
46613;SDS011;32338;50.430;6.806;2023-05-10T05:56:46;7.55;;;4.90;;
46613;SDS011;32338;50.430;6.806;2023-05-10T05:59:13;7.85;;;4.63;;
46613;SDS011;32338;50.430;6.806;2023-05-10T06:01:41;7.90;;;4.97;;
46613;SDS011;32338;50.430;6.806;2023-05-10T06:04:07;4.70;;;4.30;;
46613;SDS011;32338;50.430;6.806;2023-05-10T06:06:34;7.10;;;4.35;;
46613;SDS011;32338;50.430;6.806;2023-05-10T06:09:01;8.55;;;4.25;;
46613;SDS011;32338;50.430;6.806;2023-05-10T06:11:27;7.65;;;3.63;;
46613;SDS011;32338;50.430;6.806;2023-05-10T06:13:55;8.57;;;4.20;;
46613;SDS011;32338;50.430;6.806;2023-05-10T06:16:22;6.82;;;4.47;;
46613;SDS011;32338;50.430;6.806;2023-05-10T06:18:50;4.00;;;3.60;;
46613;SDS011;32338;50.430;6.806;2023-05-10T06:21:17;8.32;;;4.85;;
46613;SDS011;32338;50.430;6.806;2023-05-10T06:23:43;9.90;;;4.60;;
46613;SDS011;32338;50.430;6.806;2023-05-10T06:26:10;7.85;;;5.00;;
46613;SDS011;32338;50.430;6.806;2023-05-10T06:28:36;7.30;;;4.95;;
46613;SDS011;32338;50.430;6.806;2023-05-10T06:31:04;4.90;;;4.47;;
46613;SDS011;32338;50.430;6.806;2023-05-10T06:33:31;20.15;;;5.78;;
46613;SDS011;32338;50.430;6.806;2023-05-10T06:35:59;9.85;;;4.90;;
46613;SDS011;32338;50.430;6.806;2023-05-10T06:38:25;11.80;;;5.20;;
46613;SDS011;32338;50.430;6.806;2023-05-10T06:40:52;8.25;;;5.22;;
46613;SDS011;32338;50.430;6.806;2023-05-10T06:43:19;8.13;;;5.65;;
46613;SDS011;32338;50.430;6.806;2023-05-10T06:45:45;9.00;;;5.03;;
46613;SDS011;32338;50.430;6.806;2023-05-10T06:48:13;7.63;;;4.75;;
46613;SDS011;32338;50.430;6.806;2023-05-10T06:50:40;6.47;;;4.55;;
46613;SDS011;32338;50.430;6.806;2023-05-10T06:53:08;11.73;;;4.30;;
46613;SDS011;32338;50.430;6.806;2023-05-10T06:55:34;5.10;;;4.15;;
46613;SDS011;32338;50.430;6.806;2023-05-10T06:58:01;4.10;;;3.80;;
46613;SDS011;32338;50.430;6.806;2023-05-10T07:00:27;4.85;;;3.55;;
46613;SDS011;32338;50.430;6.806;2023-05-10T07:02:54;5.05;;;3.58;;
46613;SDS011;32338;50.430;6.806;2023-05-10T07:05:21;5.28;;;3.00;;
46613;SDS011;32338;50.430;6.806;2023-05-10T07:07:47;8.40;;;2.83;;
46613;SDS011;32338;50.430;6.806;2023-05-10T07:10:15;4.55;;;2.65;;
46613;SDS011;32338;50.430;6.806;2023-05-10T07:12:42;5.25;;;2.85;;
46613;SDS011;32338;50.430;6.806;2023-05-10T07:15:09;5.43;;;2.72;;
46613;SDS011;32338;50.430;6.806;2023-05-10T07:17:36;3.70;;;2.30;;
46613;SDS011;32338;50.430;6.806;2023-05-10T07:20:03;2.65;;;1.85;;
46613;SDS011;32338;50.430;6.806;2023-05-10T07:22:30;1.20;;;1.05;;
46613;SDS011;32338;50.430;6.806;2023-05-10T07:24:56;2.88;;;1.08;;
46613;SDS011;32338;50.430;6.806;2023-05-10T07:27:24;1.77;;;0.60;;
46613;SDS011;32338;50.430;6.806;2023-05-10T07:29:51;2.75;;;0.75;;
46613;SDS011;32338;50.430;6.806;2023-05-10T07:32:18;2.55;;;0.80;;
46613;SDS011;32338;50.430;6.806;2023-05-10T07:34:44;1.15;;;0.50;;
46613;SDS011;32338;50.430;6.806;2023-05-10T07:37:11;2.17;;;0.50;;
46613;SDS011;32338;50.430;6.806;2023-05-10T07:39:37;0.35;;;0.20;;
46613;SDS011;32338;50.430;6.806;2023-05-10T07:42:04;1.70;;;0.35;;
46613;SDS011;32338;50.430;6.806;2023-05-10T07:44:32;1.50;;;0.20;;
46613;SDS011;32338;50.430;6.806;2023-05-10T07:46:58;0.17;;;0.17;;
46613;SDS011;32338;50.430;6.806;2023-05-10T07:49:25;2.13;;;0.30;;
46613;SDS011;32338;50.430;6.806;2023-05-10T07:51:52;0.55;;;0.20;;
46613;SDS011;32338;50.430;6.806;2023-05-10T07:54:18;0.30;;;0.20;;
46613;SDS011;32338;50.430;6.806;2023-05-10T07:56:45;1.73;;;0.17;;
46613;SDS011;32338;50.430;6.806;2023-05-10T07:59:14;3.35;;;0.13;;
46613;SDS011;32338;50.430;6.806;2023-05-10T08:01:43;0.73;;;0.20;;
46613;SDS011;32338;50.430;6.806;2023-05-10T08:04:10;3.50;;;0.20;;
46613;SDS011;32338;50.430;6.806;2023-05-10T08:06:37;0.45;;;0.20;;
46613;SDS011;32338;50.430;6.806;2023-05-10T08:09:05;0.10;;;0.10;;
46613;SDS011;32338;50.430;6.806;2023-05-10T08:11:31;1.80;;;0.10;;
46613;SDS011;32338;50.430;6.806;2023-05-10T08:13:58;0.43;;;0.10;;
46613;SDS011;32338;50.430;6.806;2023-05-10T08:16:25;0.30;;;0.10;;
46613;SDS011;32338;50.430;6.806;2023-05-10T08:18:52;0.50;;;0.30;;
46613;SDS011;32338;50.430;6.806;2023-05-10T08:21:20;1.25;;;0.17;;
46613;SDS011;32338;50.430;6.806;2023-05-10T08:23:46;2.72;;;0.20;;
46613;SDS011;32338;50.430;6.806;2023-05-10T08:26:14;0.22;;;0.10;;
46613;SDS011;32338;50.430;6.806;2023-05-10T08:28:40;3.53;;;0.20;;
46613;SDS011;32338;50.430;6.806;2023-05-10T08:31:07;3.35;;;0.10;;
46613;SDS011;32338;50.430;6.806;2023-05-10T08:33:33;0.00;;;0.00;;
46613;SDS011;32338;50.430;6.806;2023-05-10T08:36:01;0.43;;;0.17;;
46613;SDS011;32338;50.430;6.806;2023-05-10T08:38:28;0.10;;;0.10;;
46613;SDS011;32338;50.430;6.806;2023-05-10T08:40:55;4.28;;;0.30;;
46613;SDS011;32338;50.430;6.806;2023-05-10T08:43:23;0.10;;;0.10;;
46613;SDS011;32338;50.430;6.806;2023-05-10T08:45:53;0.15;;;0.10;;
46613;SDS011;32338;50.430;6.806;2023-05-10T08:48:20;1.35;;;0.20;;
46613;SDS011;32338;50.430;6.806;2023-05-10T08:50:49;0.40;;;0.25;;
46613;SDS011;32338;50.430;6.806;2023-05-10T08:53:20;0.30;;;0.20;;
46613;SDS011;32338;50.430;6.806;2023-05-10T08:55:48;3.05;;;0.20;;
46613;SDS011;32338;50.430;6.806;2023-05-10T08:58:15;1.55;;;0.20;;
46613;SDS011;32338;50.430;6.806;2023-05-10T09:00:42;1.75;;;0.20;;
46613;SDS011;32338;50.430;6.806;2023-05-10T09:03:09;0.28;;;0.10;;
46613;SDS011;32338;50.430;6.806;2023-05-10T09:05:36;0.73;;;0.25;;
46613;SDS011;32338;50.430;6.806;2023-05-10T09:08:03;0.55;;;0.20;;
46613;SDS011;32338;50.430;6.806;2023-05-10T09:10:31;4.03;;;0.10;;
46613;SDS011;32338;50.430;6.806;2023-05-10T09:12:58;0.20;;;0.20;;
46613;SDS011;32338;50.430;6.806;2023-05-10T09:15:25;0.30;;;0.17;;
46613;SDS011;32338;50.430;6.806;2023-05-10T09:17:52;1.77;;;0.20;;
46613;SDS011;32338;50.430;6.806;2023-05-10T09:20:18;0.10;;;0.10;;
46613;SDS011;32338;50.430;6.806;2023-05-10T09:22:45;0.63;;;0.10;;
46613;SDS011;32338;50.430;6.806;2023-05-10T09:25:14;0.57;;;0.20;;
46613;SDS011;32338;50.430;6.806;2023-05-10T09:27:44;1.27;;;0.10;;
46613;SDS011;32338;50.430;6.806;2023-05-10T09:30:14;0.20;;;0.10;;
46613;SDS011;32338;50.430;6.806;2023-05-10T09:32:42;0.80;;;0.10;;
46613;SDS011;32338;50.430;6.806;2023-05-10T09:35:10;0.93;;;0.15;;
46613;SDS011;32338;50.430;6.806;2023-05-10T09:37:38;0.10;;;0.10;;
46613;SDS011;32338;50.430;6.806;2023-05-10T09:40:07;2.55;;;0.10;;
46613;SDS011;32338;50.430;6.806;2023-05-10T09:42:37;1.05;;;0.10;;
46613;SDS011;32338;50.430;6.806;2023-05-10T09:45:05;0.82;;;0.10;;
46613;SDS011;32338;50.430;6.806;2023-05-10T09:47:33;0.38;;;0.00;;
46613;SDS011;32338;50.430;6.806;2023-05-10T09:50:01;0.10;;;0.10;;
46613;SDS011;32338;50.430;6.806;2023-05-10T09:52:29;0.52;;;0.10;;
46613;SDS011;32338;50.430;6.806;2023-05-10T09:54:57;0.30;;;0.20;;
46613;SDS011;32338;50.430;6.806;2023-05-10T09:57:24;0.47;;;0.43;;
46613;SDS011;32338;50.430;6.806;2023-05-10T09:59:51;1.38;;;0.10;;
46613;SDS011;32338;50.430;6.806;2023-05-10T10:02:20;0.20;;;0.10;;
46613;SDS011;32338;50.430;6.806;2023-05-10T10:04:48;0.10;;;0.10;;
46613;SDS011;32338;50.430;6.806;2023-05-10T10:07:17;0.00;;;0.00;;
46613;SDS011;32338;50.430;6.806;2023-05-10T10:09:49;0.50;;;0.10;;
46613;SDS011;32338;50.430;6.806;2023-05-10T10:12:16;0.15;;;0.10;;
46613;SDS011;32338;50.430;6.806;2023-05-10T10:14:44;1.30;;;0.15;;
46613;SDS011;32338;50.430;6.806;2023-05-10T10:17:12;0.50;;;0.10;;
46613;SDS011;32338;50.430;6.806;2023-05-10T10:19:40;1.00;;;0.10;;
46613;SDS011;32338;50.430;6.806;2023-05-10T10:22:07;1.38;;;0.10;;
46613;SDS011;32338;50.430;6.806;2023-05-10T10:24:36;2.63;;;0.28;;
46613;SDS011;32338;50.430;6.806;2023-05-10T10:27:04;1.17;;;0.10;;
46613;SDS011;32338;50.430;6.806;2023-05-10T10:29:39;0.20;;;0.10;;
46613;SDS011;32338;50.430;6.806;2023-05-10T10:32:18;0.20;;;0.10;;
46613;SDS011;32338;50.430;6.806;2023-05-10T10:34:49;3.20;;;0.20;;
46613;SDS011;32338;50.430;6.806;2023-05-10T10:37:17;1.48;;;0.20;;
46613;SDS011;32338;50.430;6.806;2023-05-10T10:39:43;1.95;;;0.10;;
46613;SDS011;32338;50.430;6.806;2023-05-10T10:42:10;0.45;;;0.10;;
46613;SDS011;32338;50.430;6.806;2023-05-10T10:44:37;0.10;;;0.10;;
46613;SDS011;32338;50.430;6.806;2023-05-10T10:47:08;3.03;;;0.10;;
46613;SDS011;32338;50.430;6.806;2023-05-10T10:49:51;4.93;;;0.30;;
46613;SDS011;32338;50.430;6.806;2023-05-10T10:52:23;0.60;;;0.20;;
46613;SDS011;32338;50.430;6.806;2023-05-10T10:54:56;0.20;;;0.15;;
46613;SDS011;32338;50.430;6.806;2023-05-10T10:57:25;0.50;;;0.10;;
46613;SDS011;32338;50.430;6.806;2023-05-10T10:59:54;0.45;;;0.10;;
46613;SDS011;32338;50.430;6.806;2023-05-10T11:02:51;0.55;;;0.10;;
46613;SDS011;32338;50.430;6.806;2023-05-10T11:05:36;0.95;;;0.10;;
46613;SDS011;32338;50.430;6.806;2023-05-10T11:08:08;0.25;;;0.10;;
46613;SDS011;32338;50.430;6.806;2023-05-10T11:10:48;1.63;;;0.25;;
46613;SDS011;32338;50.430;6.806;2023-05-10T11:13:27;0.52;;;0.17;;
46613;SDS011;32338;50.430;6.806;2023-05-10T11:15:55;0.20;;;0.20;;
46613;SDS011;32338;50.430;6.806;2023-05-10T11:18:24;0.10;;;0.10;;
46613;SDS011;32338;50.430;6.806;2023-05-10T11:20:55;1.17;;;0.20;;
46613;SDS011;32338;50.430;6.806;2023-05-10T11:23:23;0.52;;;0.10;;
46613;SDS011;32338;50.430;6.806;2023-05-10T11:25:56;0.40;;;0.20;;
46613;SDS011;32338;50.430;6.806;2023-05-10T11:28:23;1.17;;;0.22;;
46613;SDS011;32338;50.430;6.806;2023-05-10T11:30:49;1.27;;;0.20;;
46613;SDS011;32338;50.430;6.806;2023-05-10T11:33:17;0.95;;;0.47;;
46613;SDS011;32338;50.430;6.806;2023-05-10T11:35:45;0.90;;;0.20;;
46613;SDS011;32338;50.430;6.806;2023-05-10T11:38:13;0.40;;;0.10;;
46613;SDS011;32338;50.430;6.806;2023-05-10T11:40:40;0.80;;;0.60;;
46613;SDS011;32338;50.430;6.806;2023-05-10T11:43:08;0.73;;;0.50;;
46613;SDS011;32338;50.430;6.806;2023-05-10T11:45:36;2.40;;;0.10;;
46613;SDS011;32338;50.430;6.806;2023-05-10T11:48:03;1.80;;;1.23;;
46613;SDS011;32338;50.430;6.806;2023-05-10T11:50:30;0.30;;;0.10;;
46613;SDS011;32338;50.430;6.806;2023-05-10T11:52:57;1.10;;;0.68;;
46613;SDS011;32338;50.430;6.806;2023-05-10T11:55:26;0.90;;;0.32;;
46613;SDS011;32338;50.430;6.806;2023-05-10T11:57:52;0.80;;;0.40;;
46613;SDS011;32338;50.430;6.806;2023-05-10T12:00:20;0.88;;;0.10;;
46613;SDS011;32338;50.430;6.806;2023-05-10T12:02:47;1.48;;;0.05;;
46613;SDS011;32338;50.430;6.806;2023-05-10T12:05:15;1.65;;;0.00;;
46613;SDS011;32338;50.430;6.806;2023-05-10T12:07:42;1.42;;;0.10;;
46613;SDS011;32338;50.430;6.806;2023-05-10T12:10:09;0.08;;;0.08;;
46613;SDS011;32338;50.430;6.806;2023-05-10T12:12:41;3.30;;;0.10;;
46613;SDS011;32338;50.430;6.806;2023-05-10T12:15:12;1.15;;;0.10;;
46613;SDS011;32338;50.430;6.806;2023-05-10T12:17:44;0.22;;;0.10;;
46613;SDS011;32338;50.430;6.806;2023-05-10T12:20:14;0.22;;;0.10;;
46613;SDS011;32338;50.430;6.806;2023-05-10T12:22:45;0.22;;;0.10;;
46613;SDS011;32338;50.430;6.806;2023-05-10T12:25:13;2.28;;;0.00;;
46613;SDS011;32338;50.430;6.806;2023-05-10T12:27:41;0.15;;;0.10;;
46613;SDS011;32338;50.430;6.806;2023-05-10T12:30:18;0.10;;;0.00;;
46613;SDS011;32338;50.430;6.806;2023-05-10T12:32:45;1.40;;;0.20;;
46613;SDS011;32338;50.430;6.806;2023-05-10T12:35:11;0.80;;;0.20;;
46613;SDS011;32338;50.430;6.806;2023-05-10T12:37:38;0.30;;;0.10;;
46613;SDS011;32338;50.430;6.806;2023-05-10T12:40:05;1.17;;;0.10;;
46613;SDS011;32338;50.430;6.806;2023-05-10T12:42:34;0.50;;;0.15;;
46613;SDS011;32338;50.430;6.806;2023-05-10T12:45:02;1.20;;;0.20;;
46613;SDS011;32338;50.430;6.806;2023-05-10T12:47:30;0.17;;;0.10;;
46613;SDS011;32338;50.430;6.806;2023-05-10T12:49:57;0.32;;;0.10;;
46613;SDS011;32338;50.430;6.806;2023-05-10T12:52:24;2.35;;;0.10;;
46613;SDS011;32338;50.430;6.806;2023-05-10T12:54:51;0.38;;;0.10;;
46613;SDS011;32338;50.430;6.806;2023-05-10T12:57:17;0.10;;;0.10;;
46613;SDS011;32338;50.430;6.806;2023-05-10T12:59:44;0.40;;;0.20;;
46613;SDS011;32338;50.430;6.806;2023-05-10T13:02:12;1.67;;;0.20;;
46613;SDS011;32338;50.430;6.806;2023-05-10T13:04:39;0.20;;;0.10;;
46613;SDS011;32338;50.430;6.806;2023-05-10T13:07:06;1.02;;;0.17;;
46613;SDS011;32338;50.430;6.806;2023-05-10T13:09:33;0.47;;;0.10;;
46613;SDS011;32338;50.430;6.806;2023-05-10T13:11:59;0.45;;;0.20;;
46613;SDS011;32338;50.430;6.806;2023-05-10T13:14:26;4.68;;;0.20;;
46613;SDS011;32338;50.430;6.806;2023-05-10T13:16:53;1.85;;;0.20;;
46613;SDS011;32338;50.430;6.806;2023-05-10T13:19:21;0.50;;;0.20;;
46613;SDS011;32338;50.430;6.806;2023-05-10T13:21:47;4.10;;;0.40;;
46613;SDS011;32338;50.430;6.806;2023-05-10T13:24:14;0.65;;;0.10;;
46613;SDS011;32338;50.430;6.806;2023-05-10T13:26:41;1.00;;;0.22;;
46613;SDS011;32338;50.430;6.806;2023-05-10T13:29:08;1.75;;;0.20;;
46613;SDS011;32338;50.430;6.806;2023-05-10T13:31:35;3.65;;;0.30;;
46613;SDS011;32338;50.430;6.806;2023-05-10T13:34:02;0.73;;;0.30;;
46613;SDS011;32338;50.430;6.806;2023-05-10T13:36:30;2.10;;;0.40;;
46613;SDS011;32338;50.430;6.806;2023-05-10T13:38:56;0.52;;;0.40;;
46613;SDS011;32338;50.430;6.806;2023-05-10T13:41:23;0.40;;;0.40;;
46613;SDS011;32338;50.430;6.806;2023-05-10T13:43:50;2.45;;;0.50;;
46613;SDS011;32338;50.430;6.806;2023-05-10T13:46:16;0.60;;;0.40;;
46613;SDS011;32338;50.430;6.806;2023-05-10T13:48:43;3.78;;;0.40;;
46613;SDS011;32338;50.430;6.806;2023-05-10T13:51:10;0.90;;;0.60;;
46613;SDS011;32338;50.430;6.806;2023-05-10T13:53:38;3.53;;;0.70;;
46613;SDS011;32338;50.430;6.806;2023-05-10T13:56:04;0.82;;;0.50;;
46613;SDS011;32338;50.430;6.806;2023-05-10T13:58:31;1.15;;;0.43;;
46613;SDS011;32338;50.430;6.806;2023-05-10T14:00:58;0.68;;;0.50;;
46613;SDS011;32338;50.430;6.806;2023-05-10T14:03:24;0.43;;;0.40;;
46613;SDS011;32338;50.430;6.806;2023-05-10T14:05:51;0.85;;;0.20;;
46613;SDS011;32338;50.430;6.806;2023-05-10T14:08:18;0.75;;;0.30;;
46613;SDS011;32338;50.430;6.806;2023-05-10T14:10:46;0.85;;;0.63;;
46613;SDS011;32338;50.430;6.806;2023-05-10T14:13:13;1.73;;;0.20;;
46613;SDS011;32338;50.430;6.806;2023-05-10T14:15:40;0.30;;;0.10;;
46613;SDS011;32338;50.430;6.806;2023-05-10T14:18:07;2.83;;;0.32;;
46613;SDS011;32338;50.430;6.806;2023-05-10T14:20:33;0.40;;;0.20;;
46613;SDS011;32338;50.430;6.806;2023-05-10T14:23:00;2.85;;;0.30;;
46613;SDS011;32338;50.430;6.806;2023-05-10T14:25:27;0.70;;;0.30;;
46613;SDS011;32338;50.430;6.806;2023-05-10T14:27:55;2.50;;;0.30;;
46613;SDS011;32338;50.430;6.806;2023-05-10T14:30:21;0.35;;;0.30;;
46613;SDS011;32338;50.430;6.806;2023-05-10T14:32:48;1.77;;;0.35;;
46613;SDS011;32338;50.430;6.806;2023-05-10T14:35:14;0.20;;;0.20;;
46613;SDS011;32338;50.430;6.806;2023-05-10T14:37:41;1.73;;;0.32;;
46613;SDS011;32338;50.430;6.806;2023-05-10T14:40:08;1.33;;;0.30;;
46613;SDS011;32338;50.430;6.806;2023-05-10T14:42:35;0.50;;;0.40;;
46613;SDS011;32338;50.430;6.806;2023-05-10T14:45:03;0.70;;;0.30;;
46613;SDS011;32338;50.430;6.806;2023-05-10T14:47:31;3.42;;;0.38;;
46613;SDS011;32338;50.430;6.806;2023-05-10T14:49:57;1.38;;;0.30;;
46613;SDS011;32338;50.430;6.806;2023-05-10T14:52:24;0.40;;;0.20;;
46613;SDS011;32338;50.430;6.806;2023-05-10T14:54:50;0.80;;;0.25;;
46613;SDS011;32338;50.430;6.806;2023-05-10T14:57:17;1.20;;;0.25;;
46613;SDS011;32338;50.430;6.806;2023-05-10T14:59:44;1.17;;;0.28;;